Time;durP1;ratioP1;P1;durP2;ratioP2;P2;SDS_P1;SDS_P2;PMS_P1;PMS_P2;Temp;Humidity;BMP_temperature;BMP_pressure;BME280_temperature;BME280_humidity;BME280_pressure;Samples;Min_cycle;Max_cycle;Signal;HPM_P1;HPM_P2
2023/07/05 04:19:24;;;;;;;20.77;13.70;;;;;;;16.84;100.00;100234.16;5558088;32;292106;-86
2023/07/05 04:22:30;;;;;;;19.55;13.60;;;;;;;16.90;100.00;100243.56;5546348;32;33344;-85
2023/07/05 04:25:33;;;;;;;18.62;12.13;;;;;;;17.02;100.00;100245.31;5545201;32;33458;-86
2023/07/05 04:28:37;;;;;;;20.60;12.95;;;;;;;17.18;100.00;100247.63;5545245;32;34587;-86
2023/07/05 04:31:40;;;;;;;18.17;12.25;;;;;;;17.28;100.00;100250.41;5546795;32;34462;-85
2023/07/05 04:34:43;;;;;;;17.92;11.32;;;;;;;17.52;100.00;100255.59;5546532;32;33431;-86
2023/07/05 04:37:45;;;;;;;15.73;10.70;;;;;;;17.80;100.00;100259.72;5546915;32;33642;-86
2023/07/05 04:40:48;;;;;;;16.80;10.60;;;;;;;18.12;100.00;100261.56;5547297;32;34102;-86
2023/07/05 04:43:53;;;;;;;17.75;10.73;;;;;;;18.15;100.00;100262.16;5545527;32;33917;-86
2023/07/05 04:46:56;;;;;;;14.65;10.55;;;;;;;18.26;100.00;100263.09;5551351;32;33569;-85
2023/07/05 04:49:59;;;;;;;19.80;11.73;;;;;;;18.40;100.00;100275.38;5557058;32;34735;-86
2023/07/05 04:53:02;;;;;;;16.90;11.00;;;;;;;18.44;100.00;100277.66;5556835;32;35097;-86
2023/07/05 04:56:04;;;;;;;21.25;11.25;;;;;;;18.63;100.00;100276.09;5556694;32;35231;-86
2023/07/05 04:59:07;;;;;;;16.87;11.02;;;;;;;18.84;100.00;100276.09;5550937;32;35194;-85
2023/07/05 05:02:10;;;;;;;17.33;11.50;;;;;;;18.94;100.00;100281.50;5543891;32;33913;-86
2023/07/05 05:05:13;;;;;;;16.10;11.30;;;;;;;19.08;100.00;100274.97;5544480;32;33633;-86
2023/07/05 05:08:16;;;;;;;16.73;10.50;;;;;;;19.05;100.00;100269.84;5545437;32;33773;-86
2023/07/05 05:11:20;;;;;;;17.83;12.18;;;;;;;19.24;100.00;100279.84;5546526;32;33745;-85
2023/07/05 05:14:22;;;;;;;20.65;11.70;;;;;;;19.51;100.00;100282.91;5556551;32;34787;-86
2023/07/05 05:17:26;;;;;;;20.20;11.60;;;;;;;19.67;100.00;100277.00;5554809;32;34493;-90
2023/07/05 05:20:30;;;;;;;15.18;11.02;;;;;;;19.88;100.00;100284.09;5552628;32;34844;-89
2023/07/05 05:23:34;;;;;;;18.17;12.13;;;;;;;20.87;100.00;100288.50;5550090;32;34718;-89
2023/07/05 05:26:37;;;;;;;17.00;10.95;;;;;;;22.80;100.00;100285.03;5551668;32;33861;-86
2023/07/05 05:29:39;;;;;;;23.42;11.55;;;;;;;24.81;100.00;100287.28;5546063;32;34078;-87
2023/07/05 05:32:42;;;;;;;15.85;11.95;;;;;;;27.60;94.46;100293.78;5537596;32;33829;-87
2023/07/05 05:35:50;;;;;;;19.30;11.95;;;;;;;29.65;80.25;100296.06;5529776;32;33535;-87
2023/07/05 05:38:52;;;;;;;14.10;11.05;;;;;;;30.61;74.22;100302.34;5532823;32;33701;-86
2023/07/05 05:41:55;;;;;;;13.45;10.38;;;;;;;32.24;62.10;100297.16;5538646;32;34353;-87
2023/07/05 05:44:58;;;;;;;14.25;10.93;;;;;;;33.43;56.71;100295.38;5540091;32;33856;-86
2023/07/05 05:48:01;;;;;;;15.52;10.00;;;;;;;34.37;47.19;100295.16;5528470;32;33568;-85
2023/07/05 05:51:03;;;;;;;11.45;9.15;;;;;;;34.54;46.26;100293.38;5526302;32;33757;-85
2023/07/05 05:54:06;;;;;;;13.25;9.35;;;;;;;35.54;44.61;100286.19;5528006;32;33829;-85
2023/07/05 05:57:09;;;;;;;12.93;10.05;;;;;;;35.80;41.69;100291.41;5527589;32;33879;-85
2023/07/05 06:00:12;;;;;;;13.43;9.88;;;;;;;35.39;43.15;100295.00;5523685;32;33676;-85
2023/07/05 06:03:15;;;;;;;14.20;10.00;;;;;;;34.53;44.53;100291.69;5522480;32;33853;-85
2023/07/05 06:06:18;;;;;;;13.30;10.65;;;;;;;34.51;44.86;100291.13;5533574;32;34515;-83
2023/07/05 06:09:24;;;;;;;15.63;10.27;;;;;;;34.83;42.35;100284.41;5535815;32;34570;-84
2023/07/05 06:12:27;;;;;;;12.07;9.32;;;;;;;35.15;41.82;100288.72;5535759;32;35222;-83
2023/07/05 06:15:29;;;;;;;11.48;9.45;;;;;;;35.17;41.63;100281.03;5529551;32;33873;-87
2023/07/05 06:18:32;;;;;;;10.80;9.30;;;;;;;34.11;42.51;100286.25;5528193;32;34093;-86
2023/07/05 06:21:35;;;;;;;10.25;8.68;;;;;;;33.78;44.50;100271.06;5527886;32;33851;-86
2023/07/05 06:24:37;;;;;;;12.60;9.90;;;;;;;35.01;41.16;100271.56;5528788;32;34005;-86
2023/07/05 06:27:40;;;;;;;12.52;9.45;;;;;;;36.15;37.69;100277.44;5530232;32;34623;-83
2023/07/05 06:30:46;;;;;;;13.40;9.18;;;;;;;35.78;39.31;100272.34;5532232;32;33898;-82
2023/07/05 06:33:50;;;;;;;12.90;9.38;;;;;;;35.44;39.63;100267.53;5532173;32;34259;-83
2023/07/05 06:36:52;;;;;;;12.85;10.38;;;;;;;34.48;41.97;100272.31;5531552;32;34156;-83
2023/07/05 06:39:55;;;;;;;12.48;10.57;;;;;;;32.40;46.44;100262.88;5528319;32;34006;-85
2023/07/05 06:42:58;;;;;;;11.93;9.57;;;;;;;30.64;53.22;100262.75;5528139;32;33849;-84
2023/07/05 06:46:03;;;;;;;12.93;10.10;;;;;;;29.81;57.46;100260.16;5528327;32;35177;-84
2023/07/05 06:49:06;;;;;;;14.65;11.40;;;;;;;29.06;59.41;100255.44;5529942;32;33979;-84
2023/07/05 06:52:08;;;;;;;13.48;10.90;;;;;;;28.39;62.97;100247.63;5540181;32;34073;-84
2023/07/05 06:55:11;;;;;;;13.20;9.88;;;;;;;27.61;64.35;100254.63;5532414;32;34518;-84
2023/07/05 06:58:15;;;;;;;16.10;10.60;;;;;;;28.06;66.08;100246.25;5540923;32;33540;-84
2023/07/05 07:01:18;;;;;;;11.40;9.73;;;;;;;28.26;64.94;100248.38;5537619;32;33780;-84
2023/07/05 07:04:21;;;;;;;15.05;9.65;;;;;;;28.48;64.85;100254.63;5542320;32;34981;-83
2023/07/05 07:07:24;;;;;;;14.45;9.85;;;;;;;28.18;66.89;100243.00;5531923;32;34416;-84
2023/07/05 07:10:29;;;;;;;15.15;9.18;;;;;;;28.29;66.74;100245.25;5532287;32;33812;-83
2023/07/05 07:13:33;;;;;;;13.35;9.20;;;;;;;28.09;63.28;100251.34;5541103;32;33806;-84
2023/07/05 07:16:40;;;;;;;9.98;8.00;;;;;;;28.08;63.46;100238.75;5538413;32;34375;-84
2023/07/05 07:19:42;;;;;;;14.90;9.23;;;;;;;27.98;67.58;100238.22;5531643;32;34059;-83
2023/07/05 07:22:48;;;;;;;21.83;10.35;;;;;;;28.18;63.72;100232.97;5520220;32;33566;-83
2023/07/05 07:26:05;;;;;;;14.55;9.52;;;;;;;28.44;64.06;100242.44;5512427;32;33857;-83
2023/07/05 07:29:10;;;;;;;11.93;9.25;;;;;;;28.82;64.36;100238.50;5530256;32;34009;-85
2023/07/05 07:32:13;;;;;;;13.57;8.80;;;;;;;28.73;63.81;100242.41;5529411;32;34641;-84
2023/07/05 07:35:16;;;;;;;10.77;8.50;;;;;;;28.28;64.66;100239.97;5530397;32;33857;-85
2023/07/05 07:38:18;;;;;;;13.18;7.97;;;;;;;28.90;61.19;100242.97;5539312;32;33826;-84
2023/07/05 07:41:27;;;;;;;13.02;9.05;;;;;;;29.52;60.96;100239.50;5533347;32;33415;-84
2023/07/05 07:44:30;;;;;;;12.32;9.07;;;;;;;29.68;59.89;100239.12;5534386;32;35061;-83
2023/07/05 07:47:33;;;;;;;13.35;8.43;;;;;;;29.74;60.43;100242.91;5537740;32;33401;-84
2023/07/05 07:50:35;;;;;;;16.30;9.88;;;;;;;29.74;59.89;100245.66;5534097;32;33750;-84
2023/07/05 07:53:38;;;;;;;15.95;9.60;;;;;;;29.79;59.02;100245.88;5533956;32;33681;-84
2023/07/05 07:56:43;;;;;;;13.02;8.60;;;;;;;30.21;57.09;100247.66;5533233;32;33904;-83
2023/07/05 07:59:46;;;;;;;12.35;8.27;;;;;;;30.48;57.23;100245.72;5530612;32;33706;-83
2023/07/05 08:02:48;;;;;;;10.38;8.07;;;;;;;30.36;56.41;100248.25;5541271;32;33900;-83
2023/07/05 08:05:51;;;;;;;10.35;7.72;;;;;;;28.77;59.66;100240.97;5521035;32;33892;-82
2023/07/05 08:08:54;;;;;;;10.07;7.50;;;;;;;29.70;58.56;100239.75;5530075;32;33678;-83
2023/07/05 08:11:57;;;;;;;12.82;7.70;;;;;;;29.58;60.04;100239.50;5528299;32;34292;-83
2023/07/05 08:14:59;;;;;;;11.02;8.25;;;;;;;30.62;56.36;100241.06;5528067;32;33850;-83
2023/07/05 08:18:02;;;;;;;12.50;7.62;;;;;;;31.06;52.34;100238.69;5527880;32;33981;-83
2023/07/05 08:21:05;;;;;;;10.95;7.72;;;;;;;30.46;52.87;100241.53;5531434;32;34040;-83
2023/07/05 08:24:08;;;;;;;9.13;7.05;;;;;;;31.28;53.09;100238.41;5543470;32;34126;-83
2023/07/05 08:27:18;;;;;;;12.07;7.62;;;;;;;31.35;53.40;100237.53;5553736;32;34264;-83
2023/07/05 08:30:22;;;;;;;8.52;6.90;;;;;;;32.00;49.89;100236.56;5520019;32;34384;-83
2023/07/05 08:33:26;;;;;;;9.65;7.03;;;;;;;31.99;45.06;100238.44;5519432;32;34940;-83
2023/07/05 08:36:35;;;;;;;11.23;7.70;;;;;;;32.37;48.49;100228.44;5531689;32;33947;-83
2023/07/05 08:39:37;;;;;;;12.25;8.10;;;;;;;31.79;50.10;100230.34;5525441;32;34462;-83
2023/07/05 08:43:22;;;;;;;17.42;8.13;;;;;;;31.90;48.30;100233.47;5530193;32;34437;-83
2023/07/05 08:46:27;;;;;;;11.98;7.47;;;;;;;31.58;47.48;100229.63;5530005;32;34698;-83
2023/07/05 08:49:45;;;;;;;13.25;8.40;;;;;;;32.81;45.58;100224.88;5533246;32;33596;-83
2023/07/05 08:52:49;;;;;;;9.95;7.47;;;;;;;32.84;44.64;100235.41;5528327;32;33960;-86
2023/07/05 08:55:53;;;;;;;12.05;7.93;;;;;;;32.74;45.99;100229.59;5529392;32;33587;-84
2023/07/05 08:59:08;;;;;;;13.15;7.55;;;;;;;32.46;43.05;100233.66;5528124;32;33658;-84
2023/07/05 09:02:15;;;;;;;13.62;8.38;;;;;;;32.86;43.81;100222.28;5528835;32;33691;-83
2023/07/05 09:05:35;;;;;;;11.25;8.25;;;;;;;32.56;45.73;100222.16;5530620;32;34567;-83
2023/07/05 09:08:59;;;;;;;10.90;7.50;;;;;;;33.40;42.59;100229.91;5533790;32;33993;-83
2023/07/05 09:12:23;;;;;;;12.45;7.80;;;;;;;33.48;40.81;100237.81;5532775;32;33513;-83
2023/07/05 09:15:35;;;;;;;10.63;7.22;;;;;;;32.98;41.57;100218.81;5531804;32;33615;-83
2023/07/05 09:19:18;;;;;;;9.68;7.25;;;;;;;32.25;42.66;100214.63;5531408;32;34399;-83
2023/07/05 09:22:27;;;;;;;10.05;7.72;;;;;;;32.75;43.09;100214.78;5501222;32;34002;-83
2023/07/05 09:25:32;;;;;;;12.93;7.07;;;;;;;33.55;42.23;100212.16;5531716;32;33802;-87
2023/07/05 09:29:00;;;;;;;11.05;7.53;;;;;;;33.48;40.74;100215.81;5530903;32;34348;-83
2023/07/05 09:32:16;;;;;;;8.35;7.10;;;;;;;32.44;43.58;100211.09;5530401;32;33381;-83
2023/07/05 09:35:21;;;;;;;13.85;7.53;;;;;;;33.00;41.08;100214.75;5516074;32;33915;-83
2023/07/05 09:38:30;;;;;;;9.02;7.22;;;;;;;31.68;44.35;100220.09;5526756;32;33742;-83
2023/07/05 09:41:50;;;;;;;10.13;7.82;;;;;;;30.71;46.68;100205.31;5538130;32;34039;-83
2023/07/05 09:44:53;;;;;;;18.83;8.90;;;;;;;30.65;46.84;100210.56;5540085;32;33814;-83
2023/07/05 09:48:04;;;;;;;11.02;6.85;;;;;;;31.92;44.46;100218.47;5530408;32;34621;-83
2023/07/05 09:51:08;;;;;;;10.25;7.37;;;;;;;33.35;41.79;100205.00;5529110;32;35034;-84
2023/07/05 09:54:21;;;;;;;9.95;7.97;;;;;;;34.35;38.34;100211.97;5531548;32;33851;-84
2023/07/05 09:57:25;;;;;;;11.85;7.30;;;;;;;34.52;39.95;100204.66;5531487;32;34343;-83
2023/07/05 10:00:36;;;;;;;14.23;7.80;;;;;;;34.40;39.21;100206.59;5529924;32;34559;-84
2023/07/05 10:03:49;;;;;;;8.30;6.85;;;;;;;35.17;38.79;100201.97;5514849;32;33811;-83
2023/07/05 10:06:52;;;;;;;9.30;6.93;;;;;;;35.69;36.33;100196.59;5528848;32;34752;-83
2023/07/05 10:10:10;;;;;;;12.45;7.22;;;;;;;34.51;38.06;100203.00;5543428;32;34231;-83
2023/07/05 10:13:41;;;;;;;9.80;7.37;;;;;;;34.31;37.96;100205.25;5534678;32;33468;-83
2023/07/05 10:16:45;;;;;;;11.35;7.50;;;;;;;33.05;41.46;100200.31;5528289;32;33592;-83
2023/07/05 10:19:50;;;;;;;13.85;7.62;;;;;;;32.46;44.09;100196.09;5532280;32;34599;-83
2023/07/05 10:23:15;;;;;;;9.55;6.95;;;;;;;33.37;42.32;100193.78;5531076;32;33977;-83
2023/07/05 10:26:18;;;;;;;11.00;7.87;;;;;;;34.79;38.24;100189.59;5538972;32;33787;-85
2023/07/05 10:29:23;;;;;;;9.70;7.57;;;;;;;35.96;35.45;100191.28;5530102;32;33991;-84
2023/07/05 10:32:26;;;;;;;10.02;7.60;;;;;;;36.31;34.54;100186.56;5532175;32;33797;-84
2023/07/05 10:35:29;;;;;;;10.07;6.95;;;;;;;38.41;30.98;100194.91;5530133;32;33737;-85
2023/07/05 10:38:34;;;;;;;11.70;6.80;;;;;;;38.62;31.87;100187.59;5529846;32;34186;-84
2023/07/05 10:41:38;;;;;;;8.15;6.97;;;;;;;37.11;33.94;100179.94;5529263;32;34133;-85
2023/07/05 10:44:40;;;;;;;10.98;6.95;;;;;;;35.06;36.09;100189.03;5532716;32;33668;-84
2023/07/05 10:47:47;;;;;;;7.25;6.43;;;;;;;34.66;35.21;100185.16;5530856;32;33991;-84
2023/07/05 10:50:50;;;;;;;9.20;6.57;;;;;;;34.80;36.09;100167.28;5531068;32;34320;-84
2023/07/05 10:54:00;;;;;;;9.25;6.85;;;;;;;33.73;37.41;100173.59;5536575;32;33692;-85
2023/07/05 10:57:13;;;;;;;11.27;6.62;;;;;;;33.46;38.20;100164.88;5535637;32;33488;-85
2023/07/05 11:00:39;;;;;;;8.80;7.15;;;;;;;33.41;39.85;100157.34;5532322;32;34006;-85
2023/07/05 11:03:56;;;;;;;10.85;7.65;;;;;;;34.27;38.39;100169.97;5512756;32;33721;-84
2023/07/05 11:07:10;;;;;;;10.55;7.05;;;;;;;34.71;36.43;100168.75;5523028;32;33823;-85
2023/07/05 11:10:14;;;;;;;9.02;7.07;;;;;;;35.25;34.32;100173.19;5531041;32;34203;-85
2023/07/05 11:13:18;;;;;;;8.50;7.40;;;;;;;34.65;36.53;100154.03;5535986;32;34804;-85
2023/07/05 11:16:24;;;;;;;8.75;7.10;;;;;;;33.64;36.87;100155.78;5530864;32;34130;-85
2023/07/05 11:19:29;;;;;;;9.27;7.50;;;;;;;31.98;38.32;100149.00;5542791;32;33783;-84
2023/07/05 11:22:43;;;;;;;8.38;7.10;;;;;;;31.80;41.32;100146.19;5548987;32;33772;-84
2023/07/05 11:25:59;;;;;;;9.30;7.78;;;;;;;32.76;40.15;100139.59;5548969;32;34520;-84
2023/07/05 11:29:25;;;;;;;8.57;6.93;;;;;;;32.22;40.62;100134.69;5520108;32;34163;-85
2023/07/05 11:33:11;;;;;;;11.70;7.47;;;;;;;32.64;39.17;100140.34;5528450;32;33457;-84
2023/07/05 11:36:31;;;;;;;13.27;7.60;;;;;;;32.29;40.24;100132.69;5522038;32;33694;-84
2023/07/05 11:39:35;;;;;;;9.05;6.78;;;;;;;31.67;40.25;100131.50;5529435;32;33841;-84
2023/07/05 11:42:38;;;;;;;9.40;6.57;;;;;;;31.48;41.53;100116.91;5533421;32;34492;-85
2023/07/05 11:45:47;;;;;;;13.77;7.03;;;;;;;31.11;42.21;100124.91;5530460;32;33446;-85
2023/07/05 11:48:50;;;;;;;9.90;6.70;;;;;;;30.98;41.85;100115.72;5524917;32;33872;-85
2023/07/05 11:52:10;;;;;;;9.82;6.97;;;;;;;30.58;43.47;100113.94;5527597;32;33584;-85
2023/07/05 11:55:23;;;;;;;10.43;7.05;;;;;;;30.06;46.14;100109.19;5524339;32;33618;-86
2023/07/05 11:58:35;;;;;;;9.63;7.22;;;;;;;29.49;49.37;100104.13;5529152;32;34813;-84
2023/07/05 12:01:39;;;;;;;11.60;7.12;;;;;;;29.93;43.91;100099.13;5535740;32;34435;-84
2023/07/05 12:04:42;;;;;;;9.43;6.55;;;;;;;30.64;44.96;100087.59;5535758;32;33846;-84
2023/07/05 12:07:52;;;;;;;8.82;6.53;;;;;;;30.95;41.39;100087.91;5535960;32;34760;-84
2023/07/05 12:11:00;;;;;;;7.82;6.53;;;;;;;30.60;40.77;100089.06;5538518;32;33693;-85
2023/07/05 12:14:12;;;;;;;8.90;6.62;;;;;;;30.90;40.50;100089.41;5530717;32;34279;-84
2023/07/05 12:17:18;;;;;;;9.93;6.22;;;;;;;30.12;41.31;100078.28;5540109;32;32490;-82
2023/07/05 12:20:26;;;;;;;9.13;6.47;;;;;;;30.84;41.33;100082.06;5542074;32;34509;-84
2023/07/05 12:23:29;;;;;;;8.95;6.57;;;;;;;31.09;42.01;100078.56;5531740;32;33879;-86
2023/07/05 12:26:34;;;;;;;9.77;6.57;;;;;;;31.56;40.41;100071.94;5538608;32;34544;-84
2023/07/05 12:29:39;;;;;;;9.13;6.55;;;;;;;31.14;40.50;100062.31;5536055;32;34732;-84
2023/07/05 12:32:51;;;;;;;9.15;6.35;;;;;;;31.32;39.55;100055.28;5531798;32;33522;-84
2023/07/05 12:36:15;;;;;;;9.18;6.10;;;;;;;31.58;39.09;100059.69;5549090;32;33874;-84
2023/07/05 12:39:18;;;;;;;7.65;5.75;;;;;;;31.91;39.43;100049.50;5547028;32;33932;-84
2023/07/05 12:42:21;;;;;;;7.90;5.97;;;;;;;32.27;36.26;100047.00;5554082;32;35332;-84
2023/07/05 12:45:30;;;;;;;9.80;6.37;;;;;;;32.01;37.79;100040.75;5553578;32;34145;-84
2023/07/05 12:48:33;;;;;;;7.30;5.97;;;;;;;32.33;36.28;100032.38;5554203;32;34460;-84
2023/07/05 12:51:49;;;;;;;9.55;6.70;;;;;;;31.67;38.83;100026.53;5553623;32;34283;-84
2023/07/05 12:54:52;;;;;;;8.15;6.28;;;;;;;31.70;37.51;100026.91;5553194;32;34524;-88
2023/07/05 12:57:56;;;;;;;8.77;6.40;;;;;;;31.48;37.29;100021.00;5546734;32;34176;-86
2023/07/05 13:01:00;;;;;;;8.00;6.87;;;;;;;31.11;39.67;100007.97;5549645;32;34117;-85
2023/07/05 13:04:13;;;;;;;9.57;6.70;;;;;;;30.72;39.22;100009.91;5554850;32;34790;-85
2023/07/05 13:07:22;;;;;;;9.25;6.78;;;;;;;31.00;39.95;99998.56;5556713;32;34117;-84
2023/07/05 13:10:25;;;;;;;7.55;6.37;;;;;;;30.42;41.50;99994.84;5550601;32;34480;-84
2023/07/05 13:13:34;;;;;;;12.30;6.55;;;;;;;31.10;41.37;99998.06;5533306;32;33786;-84
2023/07/05 13:16:43;;;;;;;9.50;6.10;;;;;;;31.36;38.44;99996.22;5535330;32;33821;-84
2023/07/05 13:19:58;;;;;;;8.43;6.18;;;;;;;31.13;39.29;99989.41;5532536;32;32685;-85
2023/07/05 13:23:01;;;;;;;10.38;6.82;;;;;;;31.41;39.12;99985.41;5533004;32;33582;-85
2023/07/05 13:26:16;;;;;;;9.52;6.78;;;;;;;31.38;39.51;99979.56;5533145;32;34069;-84
2023/07/05 13:29:25;;;;;;;10.00;6.80;;;;;;;31.31;39.05;99977.72;5534480;32;35405;-85
2023/07/05 13:32:38;;;;;;;10.90;7.13;;;;;;;31.12;40.19;99979.50;5533188;32;33675;-84
2023/07/05 13:35:40;;;;;;;8.32;6.85;;;;;;;31.27;40.61;99972.91;5525016;32;34523;-85
2023/07/05 13:38:44;;;;;;;10.43;7.18;;;;;;;31.45;38.44;99977.59;5520570;32;33815;-84
2023/07/05 13:41:50;;;;;;;8.25;6.43;;;;;;;29.92;42.79;99963.44;5534808;32;34125;-84
2023/07/05 13:44:53;;;;;;;7.53;6.62;;;;;;;30.36;41.27;99955.53;5535139;32;34210;-85
2023/07/05 13:47:58;;;;;;;9.60;7.22;;;;;;;30.53;40.49;99950.38;5534803;32;33942;-84
2023/07/05 13:51:02;;;;;;;7.32;6.57;;;;;;;30.87;40.21;99942.00;5536305;32;33844;-84
2023/07/05 13:54:04;;;;;;;11.63;7.47;;;;;;;31.17;40.36;99946.81;5536562;32;34602;-85
2023/07/05 13:57:15;;;;;;;8.38;6.47;;;;;;;31.02;39.71;99943.59;5534766;32;34100;-84
2023/07/05 14:00:18;;;;;;;8.85;7.05;;;;;;;31.03;41.11;99935.13;5547386;32;34135;-83
2023/07/05 14:03:21;;;;;;;9.80;6.70;;;;;;;30.64;40.83;99926.13;5550651;32;33921;-83
2023/07/05 14:06:33;;;;;;;8.98;7.32;;;;;;;31.11;39.95;99924.97;5548291;32;33808;-88
2023/07/05 14:09:37;;;;;;;10.10;7.15;;;;;;;31.23;38.67;99923.19;5552970;32;33494;-88
2023/07/05 14:12:40;;;;;;;11.30;7.68;;;;;;;31.28;38.91;99923.34;5552576;32;34373;-84
2023/07/05 14:15:44;;;;;;;9.70;7.40;;;;;;;31.35;38.00;99923.31;5552978;32;33661;-85
2023/07/05 14:18:50;;;;;;;11.68;7.50;;;;;;;31.02;38.93;99913.47;5550605;32;33491;-86
2023/07/05 14:21:53;;;;;;;9.52;7.35;;;;;;;31.10;39.54;99915.91;5550080;32;33822;-86
2023/07/05 14:24:56;;;;;;;10.30;7.55;;;;;;;31.38;38.38;99917.37;5550387;32;34280;-85
2023/07/05 14:28:00;;;;;;;10.25;7.28;;;;;;;31.43;38.00;99916.69;5550873;32;33956;-86
2023/07/05 14:31:10;;;;;;;10.52;7.30;;;;;;;31.53;38.10;99922.47;5551221;32;35142;-86
2023/07/05 14:34:15;;;;;;;10.18;7.78;;;;;;;31.48;38.86;99918.75;5551490;32;33844;-85
2023/07/05 14:37:17;;;;;;;8.55;6.95;;;;;;;31.13;40.36;99912.72;5551431;32;33817;-86
2023/07/05 14:40:25;;;;;;;10.02;7.40;;;;;;;30.55;41.23;99914.59;5552578;32;33701;-85
2023/07/05 14:43:27;;;;;;;13.27;7.82;;;;;;;30.15;44.15;99906.62;5554132;32;33544;-86
2023/07/05 14:46:30;;;;;;;9.90;7.72;;;;;;;29.54;46.18;99902.19;5551837;32;33827;-86
2023/07/05 14:49:33;;;;;;;9.20;7.85;;;;;;;29.59;45.29;99894.19;5551647;32;34370;-85
2023/07/05 14:52:36;;;;;;;10.82;8.38;;;;;;;29.14;45.73;99896.72;5553252;32;33563;-85
2023/07/05 14:55:38;;;;;;;10.48;8.48;;;;;;;29.42;45.69;99904.66;5562078;32;34312;-85
2023/07/05 14:58:41;;;;;;;9.10;7.87;;;;;;;29.29;47.28;99897.34;5563410;32;34360;-84
2023/07/05 15:01:44;;;;;;;12.93;8.93;;;;;;;29.26;45.83;99897.75;5554098;32;34326;-86
2023/07/05 15:04:48;;;;;;;10.57;7.57;;;;;;;29.29;45.83;99891.03;5541668;32;33865;-85
2023/07/05 15:07:50;;;;;;;12.10;8.63;;;;;;;29.01;46.95;99887.50;5525521;32;33625;-86
2023/07/05 15:10:54;;;;;;;10.00;8.57;;;;;;;28.46;47.53;99895.81;5529299;32;33933;-85
2023/07/05 15:13:58;;;;;;;11.82;8.10;;;;;;;28.54;49.09;99894.75;5529291;32;34215;-86
2023/07/05 15:17:01;;;;;;;10.40;8.30;;;;;;;28.70;46.91;99882.66;5528823;32;34472;-86
